Orbital elements of COSMOS 970 DEB
| Launched | 20 December 1977 |
| Flight ended | – |
| Launch site | Tyuratam Missile and Space Center, Kazakhstan (Also known as Baikonur Cosmodrome) |
| Owner | Commonwealth of Independent States (former USSR) |
| NORAD ID | 10567 |
| Date fetched |
Epoch osculation |
Inc. [°] |
Ecc. | RA asc node [hr] |
Arg Peri. [°] |
Mean anom [°] |
Mean motion [rev/day] |
Abs. mag |
| Date fetched |
Epoch osculation |
Inc. [°] |
Ecc. | RA asc node [hr] |
Arg Peri. [°] |
Mean anom [°] |
Mean motion [rev/day] |
Abs. mag |
| 2026 May 03 17:57 | 2026 Apr 30 13:40:30 | 65.7944 | 0.00970 | 14.5553 | 147.3278 | 229.6674 | 13.55472 | – |
| 2026 May 02 17:57 | 2026 Apr 30 13:40:30 | 65.7944 | 0.00970 | 14.5553 | 147.3278 | 229.6674 | 13.55472 | – |
| 2026 May 01 17:56 | 2026 Apr 30 13:40:30 | 65.7944 | 0.00970 | 14.5553 | 147.3278 | 229.6674 | 13.55472 | – |
| 2026 Apr 30 17:56 | 2026 Apr 30 13:40:30 | 65.7944 | 0.00970 | 14.5553 | 147.3278 | 229.6674 | 13.55472 | – |
| 2026 Apr 29 17:57 | 2026 Apr 24 10:59:23 | 65.7944 | 0.00974 | 15.5305 | 150.3001 | 229.6674 | 13.55472 | – |
| 2026 Apr 28 17:56 | 2026 Apr 24 10:59:23 | 65.7944 | 0.00974 | 15.5305 | 150.3001 | 229.6674 | 13.55472 | – |
| 2026 Apr 27 17:58 | 2026 Apr 24 10:59:23 | 65.7944 | 0.00974 | 15.5305 | 150.3001 | 229.6674 | 13.55472 | – |
| 2026 Apr 26 17:58 | 2026 Apr 24 10:59:23 | 65.7944 | 0.00974 | 15.5305 | 150.3001 | 229.6674 | 13.55472 | – |
| 2026 Apr 25 17:58 | 2026 Apr 24 10:59:23 | 65.7944 | 0.00974 | 15.5305 | 150.3001 | 229.6674 | 13.55472 | – |
| 2026 Apr 24 17:59 | 2026 Apr 24 10:59:23 | 65.7944 | 0.00974 | 15.5305 | 150.3001 | 229.6674 | 13.55472 | – |
| 2026 Apr 23 17:57 | 2026 Apr 19 08:35:43 | 65.7939 | 0.00978 | 16.3442 | 152.7768 | 229.6674 | 13.55472 | – |
| 2026 Apr 22 17:57 | 2026 Apr 19 08:35:43 | 65.7939 | 0.00978 | 16.3442 | 152.7768 | 229.6674 | 13.55472 | – |
| 2026 Apr 21 17:57 | 2026 Apr 19 08:35:43 | 65.7939 | 0.00978 | 16.3442 | 152.7768 | 229.6674 | 13.55472 | – |
| 2026 Apr 20 17:57 | 2026 Apr 19 08:35:43 | 65.7939 | 0.00978 | 16.3442 | 152.7768 | 229.6674 | 13.55472 | – |
| 2026 Apr 19 17:58 | 2026 Apr 19 08:35:43 | 65.7939 | 0.00978 | 16.3442 | 152.7768 | 229.6674 | 13.55472 | – |
| 2026 Apr 18 17:56 | 2026 Apr 12 17:10:49 | 65.7933 | 0.00983 | 17.4041 | 155.9692 | 229.6674 | 13.55472 | – |
| 2026 Apr 16 17:57 | 2026 Apr 12 17:10:49 | 65.7933 | 0.00983 | 17.4041 | 155.9692 | 229.6674 | 13.55472 | – |
| 2026 Apr 14 17:57 | 2026 Apr 12 17:10:49 | 65.7933 | 0.00983 | 17.4041 | 155.9692 | 229.6674 | 13.55472 | – |
| 2026 Apr 13 17:57 | 2026 Apr 12 17:10:49 | 65.7933 | 0.00983 | 17.4041 | 155.9692 | 229.6674 | 13.55472 | – |
| 2026 Apr 12 17:57 | 2026 Apr 08 14:19:03 | 65.7931 | 0.00986 | 18.0614 | 157.9562 | 229.6674 | 13.55472 | – |
| 2026 Apr 11 17:57 | 2026 Apr 08 14:19:03 | 65.7931 | 0.00986 | 18.0614 | 157.9562 | 229.6674 | 13.55472 | – |
| 2026 Apr 10 17:58 | 2026 Apr 08 14:19:03 | 65.7931 | 0.00986 | 18.0614 | 157.9562 | 229.6674 | 13.55472 | – |
| 2026 Apr 09 18:01 | 2026 Apr 08 14:19:03 | 65.7931 | 0.00986 | 18.0614 | 157.9562 | 229.6674 | 13.55472 | – |
| 2026 Apr 08 17:57 | 2026 Apr 08 14:19:03 | 65.7931 | 0.00986 | 18.0614 | 157.9562 | 229.6674 | 13.55472 | – |
| 2026 Apr 07 17:57 | 2026 Apr 02 06:29:47 | 65.7933 | 0.00990 | 19.0709 | 161.0115 | 229.6674 | 13.55472 | – |
| 2026 Apr 06 17:57 | 2026 Apr 02 06:29:47 | 65.7933 | 0.00990 | 19.0709 | 161.0115 | 229.6674 | 13.55472 | – |